Time;durP1;ratioP1;P1;durP2;ratioP2;P2;SDS_P1;SDS_P2;PMS_P1;PMS_P2;Temp;Humidity;BMP_temperature;BMP_pressure;BME280_temperature;BME280_humidity;BME280_pressure;Samples;Min_cycle;Max_cycle;Signal;HPM_P1;HPM_P2
2023/06/28 00:01:25;;;;;;;10.07;3.67;;;;;;;15.51;100.00;102126.75;5087428;28;20199;-72
2023/06/28 00:03:50;;;;;;;10.80;3.70;;;;;;;16.05;100.00;102246.91;5056989;28;20191;-72
2023/06/28 00:06:15;;;;;;;13.80;4.07;;;;;;;15.95;100.00;102239.16;5056574;28;20223;-72
2023/06/28 00:08:41;;;;;;;14.90;3.87;;;;;;;15.50;100.00;102175.63;5055208;28;20196;-71
2023/06/28 00:11:08;;;;;;;7.90;3.10;;;;;;;15.68;100.00;102204.88;5054039;28;20207;-71
2023/06/28 00:13:33;;;;;;;11.40;3.60;;;;;;;15.93;100.00;102243.94;5051322;28;20214;-71
2023/06/28 00:15:58;;;;;;;9.20;3.30;;;;;;;15.87;100.00;102217.69;5086365;28;20445;-72
2023/06/28 00:18:26;;;;;;;7.27;3.67;;;;;;;15.82;100.00;102212.03;5053951;28;20639;-71
2023/06/28 00:20:52;;;;;;;16.33;4.70;;;;;;;15.91;100.00;102231.63;5051800;28;20214;-72
2023/06/28 00:23:17;;;;;;;7.27;3.60;;;;;;;16.00;100.00;102252.94;5053402;28;20815;-72
2023/06/28 00:25:43;;;;;;;10.47;3.93;;;;;;;16.04;100.00;102256.06;5053353;28;20215;-71
2023/06/28 00:28:08;;;;;;;9.73;3.80;;;;;;;14.62;100.00;102032.88;5054911;28;20802;-71
2023/06/28 00:30:34;;;;;;;7.67;3.70;;;;;;;15.91;100.00;102254.13;5052314;28;20473;-72
2023/06/28 00:32:59;;;;;;;9.97;4.10;;;;;;;15.74;100.00;102253.63;5052279;28;20210;-72
2023/06/28 00:35:25;;;;;;;8.73;3.93;;;;;;;15.80;100.00;102258.22;5051911;28;20252;-71
2023/06/28 00:37:50;;;;;;;14.90;4.23;;;;;;;15.90;100.00;102262.44;5052789;28;20236;-71
2023/06/28 00:40:15;;;;;;;13.23;4.60;;;;;;;15.46;100.00;102207.63;5053047;28;20180;-71
2023/06/28 00:42:41;;;;;;;11.53;4.03;;;;;;;15.84;100.00;102285.72;5053715;28;20183;-72
2023/06/28 00:45:12;;;;;;;13.30;4.00;;;;;;;15.93;100.00;102289.09;5056198;28;21021;-71
2023/06/28 00:47:38;;;;;;;10.10;4.57;;;;;;;14.85;100.00;102145.22;5054927;28;20713;-71
2023/06/28 00:50:05;;;;;;;12.80;4.30;;;;;;;15.91;100.00;102292.03;5051514;28;20450;-72
2023/06/28 00:52:31;;;;;;;11.70;4.40;;;;;;;15.49;100.00;102214.50;5051195;28;20465;-71
2023/06/28 00:54:56;;;;;;;16.40;4.73;;;;;;;15.90;100.00;102286.78;5053000;28;20448;-71
2023/06/28 00:57:22;;;;;;;15.07;5.13;;;;;;;15.78;100.00;102292.75;5052625;28;20809;-72
2023/06/28 00:59:50;;;;;;;7.20;4.03;;;;;;;14.56;100.00;102090.34;5052514;28;20644;-71
2023/06/28 01:02:16;;;;;;;11.57;3.93;;;;;;;15.69;100.00;102247.13;5051272;28;20209;-72
2023/06/28 01:04:43;;;;;;;9.87;3.87;;;;;;;15.88;100.00;102295.13;5053991;28;20449;-72
2023/06/28 01:07:10;;;;;;;12.47;4.70;;;;;;;15.87;100.00;102279.06;5053060;28;20583;-72
2023/06/28 01:09:36;;;;;;;9.40;3.90;;;;;;;15.92;100.00;102269.31;5053757;28;20456;-72
2023/06/28 01:12:02;;;;;;;11.60;3.90;;;;;;;15.82;100.00;102277.81;5059157;28;20473;-71
2023/06/28 01:14:28;;;;;;;13.20;4.53;;;;;;;14.86;100.00;102133.38;5052280;28;20954;-72
2023/06/28 01:16:56;;;;;;;8.57;4.20;;;;;;;15.71;100.00;102282.94;5050875;28;20522;-71
2023/06/28 01:19:24;;;;;;;9.43;3.50;;;;;;;15.20;100.00;102202.03;5082961;28;20551;-72
2023/06/28 01:21:57;;;;;;;9.60;3.93;;;;;;;15.85;100.00;102287.38;5051115;28;20469;-72
2023/06/28 01:24:24;;;;;;;12.83;3.70;;;;;;;15.69;100.00;102276.88;5050590;28;20534;-71
2023/06/28 01:26:52;;;;;;;13.00;4.10;;;;;;;15.49;100.00;102258.59;5053571;28;20469;-71
2023/06/28 01:29:21;;;;;;;9.10;3.97;;;;;;;14.54;100.00;102100.50;5051969;28;20533;-71
2023/06/28 01:31:51;;;;;;;8.53;3.90;;;;;;;15.73;100.00;102275.44;5050734;28;21013;-72
2023/06/28 01:34:17;;;;;;;8.90;4.07;;;;;;;15.83;100.00;102297.59;5051681;28;20980;-71
2023/06/28 01:36:45;;;;;;;11.10;4.03;;;;;;;15.36;100.00;102223.34;5051307;28;20438;-71
2023/06/28 01:39:12;;;;;;;9.57;3.50;;;;;;;15.31;100.00;102212.31;5053136;28;20223;-72
2023/06/28 01:41:38;;;;;;;9.10;3.40;;;;;;;14.53;100.00;102093.44;5051857;28;20462;-72
2023/06/28 01:44:04;;;;;;;11.63;4.00;;;;;;;15.79;100.00;102294.44;5053318;28;20990;-72
2023/06/28 01:46:30;;;;;;;8.23;3.57;;;;;;;15.80;100.00;102293.41;5052488;28;20302;-72
2023/06/28 01:48:56;;;;;;;10.80;4.10;;;;;;;14.91;100.00;102144.44;5053348;28;20188;-72
2023/06/28 01:51:22;;;;;;;11.83;3.90;;;;;;;15.58;100.00;102254.72;5049865;28;20461;-72
2023/06/28 01:53:47;;;;;;;15.90;4.27;;;;;;;15.47;100.00;102230.91;5048904;28;20193;-72
2023/06/28 01:56:13;;;;;;;8.00;3.43;;;;;;;15.34;100.00;102222.72;5052033;28;20612;-72
2023/06/28 01:58:38;;;;;;;11.33;3.97;;;;;;;15.65;100.00;102303.47;5051785;28;20193;-72
2023/06/28 02:01:04;;;;;;;12.03;3.63;;;;;;;15.54;100.00;102291.31;5051198;28;20266;-72
2023/06/28 02:03:29;;;;;;;16.20;4.30;;;;;;;15.26;100.00;102239.09;5052581;28;20742;-72
2023/06/28 02:05:55;;;;;;;8.03;3.03;;;;;;;15.42;100.00;102257.75;5053043;28;20206;-72
2023/06/28 02:08:21;;;;;;;15.37;3.37;;;;;;;15.43;100.00;102258.56;5054905;28;20601;-72
2023/06/28 02:10:46;;;;;;;10.60;3.80;;;;;;;15.71;100.00;102293.75;5052695;28;20214;-72
2023/06/28 02:13:12;;;;;;;9.50;3.40;;;;;;;15.54;100.00;102260.75;5051981;28;20996;-72
2023/06/28 02:15:37;;;;;;;9.63;3.23;;;;;;;15.59;100.00;102259.13;5052715;28;20214;-72
2023/06/28 02:18:07;;;;;;;9.47;3.93;;;;;;;15.69;100.00;102293.13;5053022;28;20278;-72
2023/06/28 02:20:32;;;;;;;8.90;4.10;;;;;;;15.33;100.00;102230.00;5053626;28;20176;-72
2023/06/28 02:22:58;;;;;;;9.67;3.70;;;;;;;15.00;100.00;102191.91;5052989;28;20444;-72
2023/06/28 02:25:23;;;;;;;7.00;3.10;;;;;;;15.70;100.00;102282.09;5054830;28;20179;-72
2023/06/28 02:27:49;;;;;;;10.13;3.53;;;;;;;15.78;100.00;102283.81;5061519;28;20280;-72
2023/06/28 02:30:14;;;;;;;17.40;3.63;;;;;;;15.55;100.00;102246.16;5054843;28;20654;-72
2023/06/28 02:32:40;;;;;;;11.70;3.90;;;;;;;15.34;100.00;102203.81;5050706;28;21121;-72
2023/06/28 02:35:05;;;;;;;5.60;2.80;;;;;;;15.85;100.00;102262.19;5052623;28;20207;-72
2023/06/28 02:37:31;;;;;;;10.60;3.47;;;;;;;15.35;100.00;102216.28;5051475;28;20665;-71
2023/06/28 02:39:56;;;;;;;14.30;3.30;;;;;;;15.74;100.00;102275.25;5051380;28;20187;-72
2023/06/28 02:42:22;;;;;;;9.70;3.80;;;;;;;15.81;100.00;102264.47;5052422;28;20297;-72
2023/06/28 02:44:47;;;;;;;12.93;3.70;;;;;;;14.99;100.00;102138.91;5049655;28;20304;-72
2023/06/28 02:47:13;;;;;;;9.33;3.23;;;;;;;14.60;100.00;102064.63;5085745;28;20238;-72
2023/06/28 02:49:38;;;;;;;8.27;2.87;;;;;;;15.80;100.00;102257.41;5053107;28;20183;-72
2023/06/28 02:52:04;;;;;;;8.13;3.40;;;;;;;15.19;100.00;102170.63;5050656;28;20226;-72
2023/06/28 02:54:29;;;;;;;10.03;3.50;;;;;;;15.80;100.00;102247.41;5049285;28;20180;-72
2023/06/28 02:56:55;;;;;;;9.43;3.10;;;;;;;15.85;100.00;102251.38;5049994;28;20199;-72
2023/06/28 02:59:20;;;;;;;10.90;3.63;;;;;;;15.88;100.00;102246.44;5050643;28;20595;-72
2023/06/28 03:01:45;;;;;;;9.67;3.07;;;;;;;15.79;100.00;102220.53;5051512;28;20758;-72
2023/06/28 03:04:12;;;;;;;14.20;2.97;;;;;;;15.92;100.00;102234.16;5054844;28;20179;-72
2023/06/28 03:06:38;;;;;;;7.83;2.80;;;;;;;15.82;100.00;102237.22;5056370;28;20298;-72
2023/06/28 03:09:04;;;;;;;8.40;2.87;;;;;;;14.55;100.00;102023.03;5052709;28;20528;-71
2023/06/28 03:11:29;;;;;;;9.50;3.10;;;;;;;15.85;100.00;102227.03;5052824;28;20216;-72
2023/06/28 03:13:55;;;;;;;5.87;2.80;;;;;;;14.92;100.00;102083.97;5055032;28;20180;-72
2023/06/28 03:16:22;;;;;;;5.40;2.50;;;;;;;15.88;100.00;102232.91;5052155;28;20195;-72
2023/06/28 03:18:47;;;;;;;7.03;2.40;;;;;;;15.74;100.00;102214.91;5053604;28;21359;-72
2023/06/28 03:21:12;;;;;;;8.87;2.80;;;;;;;15.72;100.00;102247.56;5053383;28;21261;-72
2023/06/28 03:23:38;;;;;;;11.23;2.67;;;;;;;15.80;100.00;102233.88;5055290;28;20186;-71
2023/06/28 03:26:03;;;;;;;5.73;2.70;;;;;;;15.32;100.00;102132.88;5054662;28;20680;-71
2023/06/28 03:28:29;;;;;;;8.50;2.83;;;;;;;14.53;100.00;102015.16;5055766;28;20198;-71
2023/06/28 03:30:54;;;;;;;8.40;3.07;;;;;;;15.08;100.00;102112.56;5054293;28;20565;-71
2023/06/28 03:33:20;;;;;;;7.20;3.10;;;;;;;15.80;100.00;102209.53;5054241;28;20214;-71
2023/06/28 03:35:45;;;;;;;8.63;3.03;;;;;;;14.98;100.00;102072.38;5053259;28;20195;-71
2023/06/28 03:38:11;;;;;;;8.10;3.13;;;;;;;15.56;100.00;102181.09;5053896;28;20188;-72
2023/06/28 03:40:36;;;;;;;7.10;2.70;;;;;;;14.81;100.00;102049.41;5053982;28;20199;-71
2023/06/28 03:43:02;;;;;;;8.30;3.23;;;;;;;15.35;100.00;102140.59;5054865;28;20249;-72
2023/06/28 03:45:28;;;;;;;9.67;2.87;;;;;;;15.22;100.00;102113.50;5054633;28;20179;-71
2023/06/28 03:47:54;;;;;;;8.57;3.70;;;;;;;16.01;100.00;102227.53;5055461;28;20461;-71
2023/06/28 03:50:20;;;;;;;7.37;2.70;;;;;;;15.26;100.00;102090.44;5054700;28;20971;-71
2023/06/28 03:52:45;;;;;;;10.33;4.07;;;;;;;15.40;100.00;102118.38;5053055;28;20188;-71
2023/06/28 03:55:11;;;;;;;8.27;3.33;;;;;;;15.32;100.00;102098.56;5052600;28;20194;-71
2023/06/28 03:57:37;;;;;;;12.27;4.47;;;;;;;16.13;100.00;102216.13;5083843;28;20578;-72
2023/06/28 04:00:07;;;;;;;7.33;3.17;;;;;;;15.74;100.00;102168.94;5052708;28;20242;-71
2023/06/28 04:02:32;;;;;;;12.00;3.70;;;;;;;15.95;100.00;102222.94;5054076;28;20210;-71
2023/06/28 04:04:57;;;;;;;8.50;3.40;;;;;;;15.95;100.00;102220.22;5055192;28;20430;-71
2023/06/28 04:07:24;;;;;;;5.90;3.00;;;;;;;16.07;100.00;102214.25;5054501;28;20569;-72
2023/06/28 04:09:51;;;;;;;10.80;2.33;;;;;;;14.97;100.00;102032.88;5052827;28;20533;-71
2023/06/28 04:12:16;;;;;;;5.67;2.57;;;;;;;15.35;100.00;102081.94;5052893;28;20545;-72
2023/06/28 04:14:42;;;;;;;8.60;2.23;;;;;;;16.16;100.00;102185.94;5052817;28;20587;-71
2023/06/28 04:17:07;;;;;;;7.67;2.70;;;;;;;16.11;100.00;102191.97;5053417;28;20217;-72
2023/06/28 04:19:33;;;;;;;6.63;2.60;;;;;;;16.13;100.00;102184.47;5082390;28;20241;-72
2023/06/28 04:21:59;;;;;;;8.50;2.47;;;;;;;15.80;100.00;102117.56;5052498;28;20706;-71
2023/06/28 04:24:25;;;;;;;6.20;2.07;;;;;;;14.99;100.00;101990.31;5052349;28;20269;-71
2023/06/28 04:26:50;;;;;;;4.87;2.27;;;;;;;16.08;100.00;102159.88;5054785;28;20557;-71
2023/06/28 04:29:15;;;;;;;6.63;1.97;;;;;;;16.16;100.00;102167.84;5055300;28;20188;-71
2023/06/28 04:31:41;;;;;;;7.73;2.10;;;;;;;15.25;100.00;102000.41;5047870;28;20230;-71
2023/06/28 04:34:07;;;;;;;6.90;2.30;;;;;;;15.91;100.00;102109.88;5051668;28;20195;-71
2023/06/28 04:36:32;;;;;;;5.80;2.07;;;;;;;15.30;100.00;102034.91;5058519;28;20182;-71
2023/06/28 04:38:58;;;;;;;5.97;1.60;;;;;;;15.66;100.00;102060.88;5049868;28;20594;-71
2023/06/28 04:41:27;;;;;;;6.53;2.03;;;;;;;16.22;100.00;102152.66;5052746;28;20215;-71
2023/06/28 04:43:55;;;;;;;4.17;2.13;;;;;;;16.34;100.00;102171.84;5052787;28;20200;-71
2023/06/28 04:46:26;;;;;;;6.97;2.63;;;;;;;16.24;100.00;102147.88;5054141;28;20498;-71
2023/06/28 04:48:53;;;;;;;5.70;1.80;;;;;;;15.24;100.00;101981.66;5052435;28;20440;-71
2023/06/28 04:51:19;;;;;;;5.53;2.20;;;;;;;15.76;100.00;102074.88;5054311;28;20515;-71
2023/06/28 04:53:46;;;;;;;5.13;1.93;;;;;;;16.35;100.00;102149.16;5052119;28;20854;-71
2023/06/28 04:56:11;;;;;;;8.87;2.53;;;;;;;16.32;100.00;102150.41;5061354;28;20832;-71
2023/06/28 04:58:37;;;;;;;4.90;2.40;;;;;;;16.31;100.00;102142.47;5052558;28;20441;-71
2023/06/28 05:01:05;;;;;;;6.00;2.03;;;;;;;15.51;100.00;102036.69;5052418;28;20282;-71
2023/06/28 05:03:31;;;;;;;8.07;2.40;;;;;;;16.20;100.00;102141.19;5053661;28;20438;-71
2023/06/28 05:05:56;;;;;;;7.53;2.33;;;;;;;15.34;100.00;101971.31;5049883;28;20479;-71
2023/06/28 05:08:22;;;;;;;4.90;1.90;;;;;;;16.31;100.00;102139.75;5054219;28;20248;-71
2023/06/28 05:10:47;;;;;;;6.50;2.13;;;;;;;16.19;100.00;102126.00;5052391;28;20635;-72
2023/06/28 05:13:13;;;;;;;5.13;2.17;;;;;;;16.45;100.00;102142.28;5051012;28;20180;-73
2023/06/28 05:15:38;;;;;;;9.40;2.23;;;;;;;16.46;100.00;102137.69;5051821;28;20183;-72
2023/06/28 05:18:04;;;;;;;6.50;1.80;;;;;;;16.41;100.00;102146.44;5051371;28;20600;-71
2023/06/28 05:20:32;;;;;;;8.30;2.43;;;;;;;16.45;100.00;102158.53;5052740;28;20233;-72
2023/06/28 05:23:12;;;;;;;4.27;2.03;;;;;;;16.20;100.00;102098.72;5049378;28;20229;-72
2023/06/28 05:25:39;;;;;;;5.53;2.07;;;;;;;16.58;100.00;102154.19;5051586;28;20446;-72
2023/06/28 05:28:06;;;;;;;8.43;2.60;;;;;;;15.77;100.00;102027.88;5051434;28;20933;-72
2023/06/28 05:30:32;;;;;;;6.20;2.40;;;;;;;16.10;100.00;102109.09;5053314;28;20960;-72
2023/06/28 05:32:58;;;;;;;5.30;2.60;;;;;;;16.47;100.00;102169.16;5053848;28;20536;-71
2023/06/28 05:35:24;;;;;;;6.90;2.60;;;;;;;16.35;100.00;102173.53;5046632;28;20238;-71
2023/06/28 05:37:50;;;;;;;8.57;3.03;;;;;;;16.26;100.00;102162.88;5050320;28;20434;-72
2023/06/28 05:40:15;;;;;;;5.20;2.60;;;;;;;15.63;100.00;102021.53;5048358;28;20444;-71
2023/06/28 05:42:41;;;;;;;7.27;2.80;;;;;;;16.01;100.00;102086.81;5048809;28;20981;-72
2023/06/28 05:45:08;;;;;;;8.07;2.80;;;;;;;16.36;100.00;102124.56;5050800;28;20187;-72
2023/06/28 05:47:33;;;;;;;6.40;2.50;;;;;;;15.17;100.00;101908.69;5048856;28;20264;-73
2023/06/28 05:49:58;;;;;;;7.60;2.70;;;;;;;16.53;100.00;102106.06;5050980;28;20961;-73
2023/06/28 05:52:24;;;;;;;7.03;2.67;;;;;;;16.37;100.00;102082.06;5053782;28;20297;-74
2023/06/28 05:54:49;;;;;;;9.07;2.53;;;;;;;16.19;100.00;102129.53;5052512;28;20202;-73
2023/06/28 05:57:15;;;;;;;8.20;2.63;;;;;;;15.53;100.00;101981.34;5048392;28;20188;-73
2023/06/28 05:59:40;;;;;;;5.50;2.70;;;;;;;16.36;100.00;102110.19;5050652;28;20205;-73
2023/06/28 06:02:06;;;;;;;7.20;2.27;;;;;;;16.19;100.00;102126.81;5052606;28;20585;-74
2023/06/28 06:04:31;;;;;;;4.90;2.43;;;;;;;15.70;100.00;102051.34;5051055;28;20684;-73
2023/06/28 06:06:57;;;;;;;5.00;2.23;;;;;;;16.39;100.00;102107.91;5050790;28;20265;-73
2023/06/28 06:09:22;;;;;;;5.43;2.80;;;;;;;16.47;100.00;102099.59;5052077;28;20186;-73
2023/06/28 06:11:48;;;;;;;9.97;2.63;;;;;;;16.58;100.00;102092.72;5050530;28;20218;-73
2023/06/28 06:14:13;;;;;;;5.97;2.43;;;;;;;16.01;100.00;102026.44;5049980;28;20222;-73
2023/06/28 06:16:38;;;;;;;6.53;2.30;;;;;;;16.58;100.00;102090.00;5051089;28;20190;-73
2023/06/28 06:19:04;;;;;;;7.00;2.30;;;;;;;16.37;100.00;102117.28;5043837;28;20188;-73
2023/06/28 06:21:29;;;;;;;5.20;2.13;;;;;;;15.75;100.00;102021.81;5051993;28;20226;-73
2023/06/28 06:23:55;;;;;;;5.80;2.20;;;;;;;16.18;100.00;102059.38;5052433;28;20191;-73
2023/06/28 06:26:20;;;;;;;4.13;2.17;;;;;;;16.33;100.00;102070.81;5050836;28;20585;-73
2023/06/28 06:28:46;;;;;;;6.23;2.20;;;;;;;16.46;100.00;102095.22;5052946;28;20270;-73
2023/06/28 06:31:13;;;;;;;4.73;1.93;;;;;;;16.42;100.00;102068.75;5051088;28;20268;-73
2023/06/28 06:33:40;;;;;;;9.40;2.63;;;;;;;15.98;100.00;102027.69;5058532;28;20200;-73
2023/06/28 06:36:05;;;;;;;3.80;2.30;;;;;;;16.39;100.00;102088.13;5051235;28;20483;-73
2023/06/28 06:38:30;;;;;;;8.27;2.70;;;;;;;16.54;100.00;102085.22;5052678;28;20434;-73
2023/06/28 06:40:56;;;;;;;7.90;2.30;;;;;;;16.45;100.00;102095.41;5054292;28;20218;-73
2023/06/28 06:43:21;;;;;;;4.90;1.90;;;;;;;15.52;100.00;101963.47;5056151;28;20274;-73
2023/06/28 06:45:47;;;;;;;11.20;2.33;;;;;;;16.21;100.00;102043.53;5055787;28;20197;-73
2023/06/28 06:48:12;;;;;;;6.50;2.53;;;;;;;15.73;100.00;102007.66;5056151;28;20188;-73
2023/06/28 06:50:37;;;;;;;5.80;2.53;;;;;;;16.04;100.00;102051.22;5055112;28;20745;-73
2023/06/28 06:53:03;;;;;;;9.00;3.07;;;;;;;15.93;100.00;102050.97;5055957;28;20187;-73
2023/06/28 06:55:28;;;;;;;6.00;2.20;;;;;;;16.56;100.00;102124.59;5054790;28;20266;-73
2023/06/28 06:57:54;;;;;;;5.37;2.80;;;;;;;15.88;100.00;101977.72;5055826;28;20569;-73
2023/06/28 07:00:19;;;;;;;5.43;2.43;;;;;;;16.34;100.00;102058.13;5053034;28;20722;-72
2023/06/28 07:02:45;;;;;;;4.60;2.73;;;;;;;16.33;100.00;102110.63;5054206;28;20563;-73
2023/06/28 07:05:10;;;;;;;5.40;2.40;;;;;;;15.73;100.00;102018.47;5053767;28;20192;-73
2023/06/28 07:07:36;;;;;;;8.33;3.10;;;;;;;16.42;100.00;102150.81;5055025;28;20215;-73
2023/06/28 07:10:01;;;;;;;7.70;3.10;;;;;;;16.53;100.00;102162.94;5053996;28;20183;-73
2023/06/28 07:12:26;;;;;;;5.03;3.27;;;;;;;16.44;100.00;102156.03;5053326;28;20203;-73
2023/06/28 07:14:52;;;;;;;11.50;2.50;;;;;;;16.31;100.00;102112.69;5053443;28;20762;-73
2023/06/28 07:17:17;;;;;;;7.23;2.87;;;;;;;16.21;100.00;102097.69;5049254;28;20191;-73
2023/06/28 07:19:43;;;;;;;4.60;2.50;;;;;;;15.34;100.00;102037.03;5054560;28;20203;-73
2023/06/28 07:22:08;;;;;;;4.27;2.57;;;;;;;16.32;100.00;102182.88;5049160;28;20203;-73
2023/06/28 07:24:33;;;;;;;6.63;2.63;;;;;;;14.68;100.00;101928.63;5054199;28;21035;-73
2023/06/28 07:26:59;;;;;;;7.17;3.17;;;;;;;16.32;100.00;102199.13;5052254;28;20210;-73
2023/06/28 07:29:24;;;;;;;7.63;2.83;;;;;;;16.03;100.00;102127.22;5055423;28;20191;-73
2023/06/28 07:31:50;;;;;;;3.53;2.30;;;;;;;16.33;100.00;102116.84;5050946;28;20597;-73
2023/06/28 07:34:15;;;;;;;5.27;2.17;;;;;;;16.50;100.00;102209.38;5054698;28;20184;-73
2023/06/28 07:36:41;;;;;;;10.10;2.80;;;;;;;16.37;100.00;102214.75;5052435;28;20183;-73
2023/06/28 07:39:09;;;;;;;6.70;2.87;;;;;;;15.71;100.00;102090.91;5052672;28;20192;-73
2023/06/28 07:41:35;;;;;;;4.37;2.40;;;;;;;16.46;100.00;102217.09;5051602;28;20226;-72
2023/06/28 07:44:00;;;;;;;6.20;2.80;;;;;;;16.28;100.00;102152.66;5054571;28;20836;-71
2023/06/28 07:46:26;;;;;;;5.10;2.60;;;;;;;15.92;100.00;102060.16;5053626;28;20231;-70
2023/06/28 07:48:51;;;;;;;6.97;3.00;;;;;;;16.64;100.00;102159.59;5054232;28;20218;-70
2023/06/28 07:51:17;;;;;;;6.00;2.37;;;;;;;16.73;100.00;102193.59;5053361;28;20281;-71
2023/06/28 07:53:42;;;;;;;3.53;2.00;;;;;;;16.90;100.00;102182.38;5054369;28;20203;-71
2023/06/28 07:56:08;;;;;;;4.90;2.50;;;;;;;16.44;100.00;102116.25;5050593;28;20191;-71
2023/06/28 07:58:37;;;;;;;7.93;2.60;;;;;;;17.03;100.00;102166.09;5047571;28;20191;-72
2023/06/28 08:01:02;;;;;;;6.67;3.20;;;;;;;16.56;100.00;102124.59;5055235;28;20211;-72
2023/06/28 08:03:28;;;;;;;7.37;2.80;;;;;;;16.56;100.00;102132.72;5055874;28;20484;-72
2023/06/28 08:05:53;;;;;;;8.20;3.60;;;;;;;16.37;100.00;102096.44;5055923;28;20219;-72
2023/06/28 08:08:18;;;;;;;6.47;3.20;;;;;;;16.78;100.00;102181.31;5055962;28;20183;-72
2023/06/28 08:10:44;;;;;;;8.43;3.00;;;;;;;16.75;100.00;102201.53;5058091;28;21165;-72
2023/06/28 08:13:09;;;;;;;11.67;3.57;;;;;;;15.17;100.00;101967.31;5055316;28;20187;-73
2023/06/28 08:15:36;;;;;;;6.60;3.30;;;;;;;16.84;100.00;102205.72;5055162;28;20602;-72
2023/06/28 08:18:03;;;;;;;5.13;3.00;;;;;;;16.22;100.00;102096.63;5055351;28;20214;-71
2023/06/28 08:20:29;;;;;;;8.40;3.67;;;;;;;16.83;100.00;102192.38;5054170;28;20963;-72
2023/06/28 08:22:54;;;;;;;7.83;3.47;;;;;;;16.25;100.00;102117.03;5055918;28;20488;-71
2023/06/28 08:25:20;;;;;;;10.40;3.53;;;;;;;16.86;100.00;102209.03;5055940;28;20902;-72
2023/06/28 08:27:45;;;;;;;15.50;4.70;;;;;;;15.45;100.00;102024.81;5055928;28;20208;-73
2023/06/28 08:30:11;;;;;;;11.20;3.60;;;;;;;16.50;100.00;102118.13;5053263;28;20214;-72
2023/06/28 08:32:37;;;;;;;7.10;4.50;;;;;;;15.96;100.00;102040.56;5053795;28;20683;-72
2023/06/28 08:35:04;;;;;;;7.73;3.80;;;;;;;16.37;100.00;102058.53;5051428;28;20934;-72
2023/06/28 08:37:34;;;;;;;8.83;4.10;;;;;;;17.09;100.00;102200.50;5054579;28;20183;-72
2023/06/28 08:40:00;;;;;;;9.13;5.03;;;;;;;17.02;100.00;102204.28;5053353;28;20434;-71
2023/06/28 08:42:28;;;;;;;14.60;4.47;;;;;;;17.11;100.00;102181.31;5054235;28;20642;-72
2023/06/28 08:44:56;;;;;;;8.13;4.40;;;;;;;16.90;100.00;102172.38;5071650;28;20438;-72
2023/06/28 08:47:21;;;;;;;9.90;5.03;;;;;;;16.45;100.00;102114.38;5053611;28;20925;-73
2023/06/28 08:49:47;;;;;;;8.90;4.80;;;;;;;17.27;100.00;102216.16;5055664;28;20438;-73
2023/06/28 08:52:15;;;;;;;8.73;5.90;;;;;;;17.24;100.00;102194.88;5055794;28;20292;-73
2023/06/28 08:54:42;;;;;;;12.03;4.50;;;;;;;17.36;100.00;102198.63;5054079;28;20926;-74
2023/06/28 08:57:08;;;;;;;12.63;5.47;;;;;;;17.30;100.00;102201.31;5053489;28;20495;-73
2023/06/28 08:59:34;;;;;;;9.00;5.07;;;;;;;17.41;100.00;102197.97;5053414;28;20442;-72
2023/06/28 09:02:01;;;;;;;12.37;5.50;;;;;;;17.45;100.00;102188.38;5053520;28;20203;-73
2023/06/28 09:04:27;;;;;;;14.37;5.50;;;;;;;16.80;100.00;102136.72;5086925;27;20194;-74
2023/06/28 09:06:52;;;;;;;7.23;4.83;;;;;;;17.33;100.00;102220.72;5050477;28;20671;-74
2023/06/28 09:09:18;;;;;;;8.23;5.90;;;;;;;17.12;100.00;102220.94;5055474;28;20540;-71
2023/06/28 09:11:46;;;;;;;7.33;5.70;;;;;;;17.35;100.00;102215.09;5057011;28;20532;-71
2023/06/28 09:14:14;;;;;;;9.13;5.00;;;;;;;17.46;100.00;102206.31;5052336;28;20925;-72
2023/06/28 09:16:40;;;;;;;8.77;4.73;;;;;;;16.85;100.00;102153.19;5053993;28;20425;-71
2023/06/28 09:19:05;;;;;;;11.57;6.23;;;;;;;17.08;100.00;102208.84;5053780;28;20417;-72
2023/06/28 09:21:31;;;;;;;6.90;5.33;;;;;;;16.61;100.00;102094.19;5054360;28;20211;-73
2023/06/28 09:23:57;;;;;;;10.13;5.87;;;;;;;16.73;100.00;102095.22;5054592;28;20183;-71
2023/06/28 09:26:30;;;;;;;11.73;6.53;;;;;;;17.22;100.00;102215.13;5055641;28;20632;-71
2023/06/28 09:29:05;;;;;;;10.83;5.57;;;;;;;17.11;100.00;102138.78;5055967;28;20756;-71
2023/06/28 09:31:32;;;;;;;8.90;5.63;;;;;;;17.42;100.00;102223.22;5053758;28;20455;-73
2023/06/28 09:33:57;;;;;;;9.40;5.60;;;;;;;17.30;100.00;102182.34;5052700;28;20466;-71
2023/06/28 09:36:22;;;;;;;9.03;5.33;;;;;;;16.64;100.00;102062.09;5052612;28;20452;-72
2023/06/28 09:38:49;;;;;;;8.37;5.40;;;;;;;16.78;100.00;102173.19;5052900;28;20230;-72
2023/06/28 09:41:14;;;;;;;13.13;5.07;;;;;;;17.29;100.00;102219.47;5059834;28;20982;-72
2023/06/28 09:43:41;;;;;;;9.63;5.37;;;;;;;17.34;100.00;102222.38;5054206;28;20213;-70
2023/06/28 09:46:14;;;;;;;8.20;4.87;;;;;;;17.16;100.00;102198.63;5055040;28;20273;-72
2023/06/28 09:48:49;;;;;;;15.20;5.20;;;;;;;17.18;100.00;102192.97;5053909;28;20460;-71
2023/06/28 09:51:16;;;;;;;8.10;4.43;;;;;;;17.54;100.00;102224.25;5061198;28;20450;-71
2023/06/28 09:53:52;;;;;;;8.83;5.23;;;;;;;16.25;100.00;102016.88;5053208;28;20898;-72
2023/06/28 09:56:38;;;;;;;7.90;4.97;;;;;;;17.51;100.00;102233.63;5051686;28;20448;-73
2023/06/28 09:59:08;;;;;;;8.77;4.57;;;;;;;17.50;100.00;102199.44;5085702;28;20449;-72
2023/06/28 10:01:39;;;;;;;11.40;4.70;;;;;;;17.62;100.00;102213.19;5052712;28;20517;-72
2023/06/28 10:04:08;;;;;;;6.13;4.93;;;;;;;17.09;100.00;102188.81;5055368;28;20422;-73
2023/06/28 10:06:35;;;;;;;8.93;4.93;;;;;;;17.45;100.00;102245.34;5054204;28;20465;-72
2023/06/28 10:09:01;;;;;;;7.13;4.60;;;;;;;17.22;100.00;102228.66;5064400;28;20442;-72
2023/06/28 10:11:29;;;;;;;7.23;4.93;;;;;;;16.83;100.00;102178.81;5050294;28;20466;-72
2023/06/28 10:13:55;;;;;;;8.30;5.50;;;;;;;17.25;100.00;102239.94;5054321;28;20426;-72
2023/06/28 10:16:26;;;;;;;8.50;4.50;;;;;;;16.70;100.00;102115.44;5053307;28;20422;-72
2023/06/28 10:18:52;;;;;;;10.10;5.17;;;;;;;17.43;100.00;102288.09;5063274;28;20443;-72
2023/06/28 10:21:18;;;;;;;9.57;5.27;;;;;;;16.39;100.00;102143.09;5051894;28;20553;-72
2023/06/28 10:23:44;;;;;;;14.73;6.07;;;;;;;17.34;100.00;102327.31;5051965;28;20285;-72
2023/06/28 10:26:12;;;;;;;11.40;6.30;;;;;;;16.16;100.00;102175.13;5062648;28;20462;-73
2023/06/28 10:28:40;;;;;;;11.30;6.60;;;;;;;16.62;100.00;102294.41;5053912;28;20947;-72
2023/06/28 10:31:06;;;;;;;11.70;6.13;;;;;;;16.99;100.00;102359.19;5053925;28;20525;-72
2023/06/28 10:33:33;;;;;;;9.73;6.07;;;;;;;16.90;100.00;102353.94;5051789;28;20504;-72
2023/06/28 10:36:02;;;;;;;8.00;4.93;;;;;;;16.74;100.00;102313.63;5053553;28;20425;-72
2023/06/28 10:38:31;;;;;;;8.13;5.33;;;;;;;17.07;100.00;102388.81;5051771;28;20446;-72
2023/06/28 10:40:57;;;;;;;8.43;5.17;;;;;;;17.11;100.00;102395.50;5054077;28;20980;-72
2023/06/28 10:43:25;;;;;;;9.43;6.43;;;;;;;16.43;100.00;102328.53;5061802;28;20483;-72
2023/06/28 10:45:52;;;;;;;13.17;6.77;;;;;;;16.55;100.00;102357.72;5054713;28;20195;-73
2023/06/28 10:48:22;;;;;;;11.53;7.60;;;;;;;16.51;100.00;102354.59;5055732;28;20421;-72
2023/06/28 10:50:49;;;;;;;10.27;7.33;;;;;;;17.06;100.00;102482.00;5052414;28;20441;-72
2023/06/28 10:53:20;;;;;;;8.40;5.73;;;;;;;17.05;100.00;102477.63;5053090;28;20465;-73
2023/06/28 10:56:04;;;;;;;13.20;7.30;;;;;;;17.26;100.00;102506.50;5053659;28;20484;-72
2023/06/28 10:58:37;;;;;;;11.10;6.83;;;;;;;16.49;100.00;102370.22;5053155;28;20449;-72
2023/06/28 11:01:04;;;;;;;15.63;6.77;;;;;;;16.21;100.00;102322.38;5069350;28;20540;-72
2023/06/28 11:03:43;;;;;;;11.33;7.60;;;;;;;17.43;100.00;102525.97;5053902;28;20425;-72
2023/06/28 11:06:11;;;;;;;14.23;6.90;;;;;;;17.08;100.00;102428.44;5055207;28;20461;-72
2023/06/28 11:08:41;;;;;;;10.40;6.10;;;;;;;16.98;100.00;102433.38;5084300;28;21318;-72
2023/06/28 11:11:09;;;;;;;10.37;6.50;;;;;;;17.21;100.00;102419.50;5049785;28;20498;-72